createdAt,value
2019-01-04T00:00:00.996Z,58.03
2019-01-04T00:00:51.995Z,58.06
2019-01-04T00:01:40.249Z,58.08
2019-01-04T00:02:23.886Z,58.23
2019-01-04T00:03:07.546Z,58.21
2019-01-04T00:03:51.403Z,57.97
2019-01-04T00:04:34.953Z,58.53
2019-01-04T00:05:18.630Z,57.62
2019-01-04T00:06:02.339Z,57.73
2019-01-04T00:06:46.077Z,57.99
2019-01-04T00:07:30.458Z,58.08
2019-01-04T00:08:14.058Z,58.14
2019-01-04T00:08:57.769Z,57.76
2019-01-04T00:09:41.452Z,58.21
2019-01-04T00:10:25.148Z,57.72
2019-01-04T00:11:08.841Z,57.89
2019-01-04T00:11:52.704Z,58.01
2019-01-04T00:12:36.453Z,57.64
2019-01-04T00:13:20.214Z,57.84
2019-01-04T00:14:03.912Z,57.94
2019-01-04T00:14:47.493Z,57.96
2019-01-04T00:15:31.225Z,57.37
2019-01-04T00:16:14.891Z,57.92
2019-01-04T00:16:58.540Z,57.86
2019-01-04T00:17:42.234Z,57.61
2019-01-04T00:18:25.990Z,57.94
2019-01-04T00:19:09.635Z,58.20
2019-01-04T00:19:53.243Z,57.94
2019-01-04T00:20:36.881Z,57.98
2019-01-04T00:21:20.531Z,57.60
2019-01-04T00:22:04.251Z,58.03
2019-01-04T00:22:47.928Z,57.98
2019-01-04T00:23:31.616Z,58.14
2019-01-04T00:24:15.327Z,57.58
2019-01-04T00:24:59.040Z,57.85
2019-01-04T00:25:42.795Z,57.67
2019-01-04T00:26:26.500Z,57.71
2019-01-04T00:27:10.141Z,57.62
2019-01-04T00:27:53.975Z,57.74
2019-01-04T00:28:37.674Z,57.95
2019-01-04T00:29:21.421Z,57.72
2019-01-04T00:30:06.242Z,57.48
2019-01-04T00:30:49.988Z,57.91
2019-01-04T00:31:33.706Z,57.72
2019-01-04T00:32:17.333Z,57.59
2019-01-04T00:33:01.321Z,57.68
2019-01-04T00:33:44.934Z,57.60
2019-01-04T00:34:28.703Z,57.65
2019-01-04T00:35:12.477Z,57.69
2019-01-04T00:35:56.125Z,57.66
2019-01-04T00:36:40.044Z,57.39
2019-01-04T00:37:23.838Z,57.41
2019-01-04T00:38:07.593Z,57.26
2019-01-04T00:38:51.262Z,57.52
2019-01-04T00:39:34.966Z,57.80
2019-01-04T00:40:18.596Z,57.76
2019-01-04T00:41:02.213Z,57.71
2019-01-04T00:41:46.214Z,58.18
2019-01-04T00:42:29.971Z,57.69
2019-01-04T00:43:13.660Z,57.55
2019-01-04T00:43:57.321Z,58.21
2019-01-04T00:44:40.971Z,58.20
2019-01-04T00:45:24.612Z,58.18
2019-01-04T00:46:08.314Z,58.10
2019-01-04T00:46:52.458Z,57.99
2019-01-04T00:47:36.178Z,58.01
2019-01-04T00:48:19.895Z,57.78
2019-01-04T00:49:03.574Z,57.97
2019-01-04T00:49:47.267Z,58.00
2019-01-04T00:50:30.952Z,58.41
2019-01-04T00:51:14.675Z,58.08
2019-01-04T00:51:58.375Z,58.66
2019-01-04T00:52:42.065Z,58.08
2019-01-04T00:53:25.693Z,58.48
2019-01-04T00:54:09.407Z,58.25
2019-01-04T00:54:54.367Z,58.45
2019-01-04T00:56:07.953Z,58.32
2019-01-04T00:57:08.546Z,58.14
2019-01-04T00:57:58.673Z,58.41
2019-01-04T00:58:56.265Z,57.93
2019-01-04T01:00:51.406Z,58.15
2019-01-04T01:02:04.870Z,58.08
2019-01-04T01:05:05.929Z,58.10
2019-01-04T01:09:00.545Z,58.76
2019-01-04T01:09:54.211Z,59.13
2019-01-04T01:12:22.366Z,59.03
2019-01-04T01:14:44.720Z,59.14
2019-01-04T01:16:09.680Z,59.19
2019-01-04T01:19:16.541Z,59.41
2019-01-04T01:20:15.855Z,59.86
2019-01-04T01:22:12.080Z,60.23
2019-01-04T01:23:07.482Z,59.75
2019-01-04T01:24:02.175Z,59.82
2019-01-04T01:24:57.845Z,60.33
2019-01-04T01:25:51.274Z,60.28
2019-01-04T01:27:49.461Z,60.31
2019-01-04T01:28:46.776Z,60.31
2019-01-04T01:29:43.531Z,60.44
2019-01-04T01:31:11.156Z,59.80
2019-01-04T01:31:56.669Z,60.28
2019-01-04T01:34:53.259Z,59.80
2019-01-04T01:35:52.654Z,59.88
2019-01-04T01:37:18.507Z,59.87
2019-01-04T01:38:13.238Z,60.05
2019-01-04T01:39:20.535Z,59.65
2019-01-04T01:40:28.877Z,59.83
2019-01-04T01:42:27.946Z,59.23
2019-01-04T01:43:23.322Z,59.29
2019-01-04T01:46:30.316Z,59.44
2019-01-04T01:47:25.370Z,59.00
2019-01-04T01:48:27.497Z,59.72
2019-01-04T01:50:36.612Z,58.93
2019-01-04T01:51:36.830Z,59.05
2019-01-04T01:52:26.761Z,59.26
2019-01-04T01:53:10.494Z,59.34
2019-01-04T01:53:54.150Z,59.25
2019-01-04T01:54:37.768Z,58.74
2019-01-04T01:55:22.533Z,59.18
2019-01-04T01:56:06.218Z,59.10
2019-01-04T01:56:49.872Z,58.79
2019-01-04T01:57:33.517Z,58.50
2019-01-04T01:58:17.216Z,58.71
2019-01-04T01:59:00.925Z,58.46
2019-01-04T01:59:44.502Z,58.42
2019-01-04T02:00:28.262Z,58.30
2019-01-04T02:01:12.002Z,57.96
2019-01-04T02:01:55.667Z,58.23
2019-01-04T02:02:39.317Z,58.02
2019-01-04T02:03:22.938Z,57.81
2019-01-04T02:04:06.654Z,57.68
2019-01-04T02:04:50.931Z,58.20
2019-01-04T02:05:34.616Z,57.53
2019-01-04T02:06:18.278Z,57.58
2019-01-04T02:07:01.913Z,57.18
2019-01-04T02:07:45.565Z,57.60
2019-01-04T02:08:29.185Z,57.21
2019-01-04T02:09:12.918Z,57.79
2019-01-04T02:09:56.542Z,57.03
2019-01-04T02:10:40.192Z,57.00
2019-01-04T02:11:23.842Z,56.91
2019-01-04T02:12:07.493Z,57.36
2019-01-04T02:12:51.197Z,57.17
2019-01-04T02:13:34.878Z,57.86
2019-01-04T02:14:18.514Z,57.17
2019-01-04T02:15:02.146Z,57.10
2019-01-04T02:15:45.861Z,57.35
2019-01-04T02:16:29.507Z,57.39
2019-01-04T02:17:13.669Z,57.29
2019-01-04T02:17:57.302Z,57.60
2019-01-04T02:18:40.981Z,57.10
2019-01-04T02:19:25.372Z,57.49
2019-01-04T02:20:09.023Z,57.52
2019-01-04T02:20:52.751Z,57.18
2019-01-04T02:21:36.501Z,57.14
2019-01-04T02:22:20.172Z,57.63
2019-01-04T02:23:03.830Z,57.45
2019-01-04T02:23:47.529Z,57.75
2019-01-04T02:24:31.194Z,57.53
2019-01-04T02:25:14.858Z,57.40
2019-01-04T02:25:58.519Z,57.38
2019-01-04T02:26:42.120Z,57.67
2019-01-04T02:27:26.484Z,57.73
2019-01-04T02:28:11.062Z,57.42
2019-01-04T02:28:54.709Z,57.58
2019-01-04T02:29:38.333Z,57.65
2019-01-04T02:30:22.148Z,57.32
2019-01-04T02:31:05.883Z,57.49
2019-01-04T02:31:49.548Z,57.43
2019-01-04T02:32:33.974Z,57.53
2019-01-04T02:33:17.595Z,57.31
2019-01-04T02:34:01.265Z,57.66
2019-01-04T02:34:44.945Z,57.43
2019-01-04T02:35:28.639Z,57.76
2019-01-04T02:36:12.454Z,58.23
2019-01-04T02:36:56.126Z,58.34
2019-01-04T02:37:39.863Z,58.11
2019-01-04T02:38:23.703Z,57.60
2019-01-04T02:39:07.598Z,57.68
2019-01-04T02:39:51.244Z,57.80
2019-01-04T02:40:34.958Z,57.94
2019-01-04T02:41:18.652Z,58.04
2019-01-04T02:42:02.331Z,58.46
2019-01-04T02:42:46.087Z,58.35
2019-01-04T02:43:29.703Z,58.01
2019-01-04T02:44:13.384Z,58.41
2019-01-04T02:44:57.041Z,58.60
2019-01-04T02:45:40.669Z,58.67
2019-01-04T02:46:24.382Z,58.56
2019-01-04T02:47:08.102Z,58.32
2019-01-04T02:47:51.817Z,59.43
2019-01-04T02:48:35.508Z,58.49
2019-01-04T02:49:19.274Z,59.04
2019-01-04T02:50:02.976Z,58.67
2019-01-04T02:50:46.646Z,58.40
2019-01-04T02:51:30.295Z,58.68
2019-01-04T02:52:13.990Z,58.84
2019-01-04T02:52:57.721Z,58.46
2019-01-04T02:53:41.390Z,58.98
2019-01-04T02:54:25.023Z,58.65
2019-01-04T02:55:08.712Z,58.64
2019-01-04T02:55:53.338Z,59.04
2019-01-04T02:56:37.032Z,58.97
2019-01-04T02:57:20.680Z,58.93
2019-01-04T02:58:04.370Z,58.95
2019-01-04T02:58:47.986Z,59.14
2019-01-04T02:59:31.680Z,59.03
2019-01-04T03:00:15.331Z,59.61
2019-01-04T03:00:59.004Z,59.25
2019-01-04T03:01:42.631Z,59.54
2019-01-04T03:02:26.254Z,59.61
2019-01-04T03:03:09.910Z,59.94
2019-01-04T03:03:53.655Z,60.19
2019-01-04T03:04:37.336Z,59.68
2019-01-04T03:05:21.232Z,59.96
2019-01-04T03:06:04.896Z,59.70
2019-01-04T03:06:48.550Z,60.02
2019-01-04T03:07:32.198Z,59.77
2019-01-04T03:08:15.932Z,59.79
2019-01-04T03:08:59.663Z,60.03
2019-01-04T03:09:43.303Z,60.15
2019-01-04T03:10:26.936Z,60.12
2019-01-04T03:11:10.690Z,59.85
2019-01-04T03:11:54.282Z,59.40
2019-01-04T03:12:37.947Z,59.75
2019-01-04T03:13:21.692Z,59.87
2019-01-04T03:14:05.368Z,59.77
2019-01-04T03:14:48.948Z,59.95
2019-01-04T03:15:32.574Z,59.89
2019-01-04T03:16:16.256Z,60.10
2019-01-04T03:16:59.863Z,60.31
2019-01-04T03:17:43.580Z,60.25
2019-01-04T03:18:27.320Z,60.02
2019-01-04T03:19:11.515Z,60.23
2019-01-04T03:19:55.146Z,59.98
2019-01-04T03:20:38.775Z,59.51
2019-01-04T03:21:22.449Z,59.54
2019-01-04T03:22:06.787Z,59.88
2019-01-04T03:22:50.473Z,59.31
2019-01-04T03:23:34.104Z,59.65
2019-01-04T03:24:17.782Z,59.64
2019-01-04T03:25:01.416Z,59.28
2019-01-04T03:25:46.071Z,59.18
2019-01-04T03:26:30.676Z,59.66
2019-01-04T03:27:14.358Z,59.70
2019-01-04T03:27:58.028Z,59.68
2019-01-04T03:28:42.014Z,59.65
2019-01-04T03:29:25.713Z,59.44
2019-01-04T03:30:09.392Z,59.98
2019-01-04T03:30:54.341Z,59.77
2019-01-04T03:31:36.813Z,59.83
2019-01-04T03:32:20.503Z,59.69
2019-01-04T03:33:04.252Z,59.80
2019-01-04T03:33:47.870Z,59.83
2019-01-04T03:34:31.590Z,60.02
2019-01-04T03:35:15.417Z,60.24
2019-01-04T03:35:59.045Z,60.00
2019-01-04T03:36:42.785Z,59.81
2019-01-04T03:37:26.417Z,59.67
2019-01-04T03:38:10.889Z,59.73
2019-01-04T03:38:54.515Z,60.19
2019-01-04T03:39:38.200Z,60.09
2019-01-04T03:40:21.913Z,59.98
2019-01-04T03:41:05.596Z,59.99
2019-01-04T03:41:49.283Z,59.60
2019-01-04T03:42:33.018Z,59.48
2019-01-04T03:43:16.658Z,60.03
2019-01-04T03:44:00.290Z,59.82
2019-01-04T03:44:44.242Z,59.61
2019-01-04T03:45:28.028Z,60.09
2019-01-04T03:46:11.631Z,60.32
2019-01-04T03:46:55.318Z,60.27
2019-01-04T03:47:39.057Z,59.43
2019-01-04T03:48:22.814Z,59.60
2019-01-04T03:49:06.484Z,60.16
2019-01-04T03:49:50.152Z,59.86
2019-01-04T04:00:50.700Z,60.99
2019-01-04T04:15:50.434Z,62.97
2019-01-04T04:30:51.807Z,64.63
2019-01-04T04:45:51.269Z,65.04
2019-01-04T05:00:50.813Z,65.68
2019-01-04T05:15:51.158Z,65.92
2019-01-04T05:30:52.014Z,65.69
2019-01-04T05:45:52.092Z,66.10
2019-01-04T06:00:49.857Z,66.96
2019-01-04T06:15:54.335Z,66.88
2019-01-04T06:30:51.789Z,66.83
2019-01-04T06:45:53.297Z,67.04
2019-01-04T07:00:53.610Z,66.78
2019-01-04T07:15:51.012Z,66.41
2019-01-04T07:30:51.479Z,65.73
2019-01-04T07:45:51.420Z,65.22
2019-01-04T08:00:50.735Z,64.21
2019-01-04T08:15:51.627Z,63.27
2019-01-04T08:30:52.123Z,63.26
2019-01-04T08:45:51.589Z,61.04
2019-01-04T09:00:50.931Z,60.28
2019-01-04T09:15:50.650Z,59.59
2019-01-04T09:30:51.232Z,58.03
2019-01-04T09:45:53.796Z,56.52
2019-01-04T10:00:51.011Z,56.73
2019-01-04T10:15:51.482Z,57.87
2019-01-04T10:30:50.824Z,59.28
2019-01-04T10:45:50.803Z,58.53
2019-01-04T11:00:50.873Z,57.25
2019-01-04T11:15:51.134Z,54.53
2019-01-04T12:00:51.450Z,58.29
2019-01-04T12:15:51.341Z,60.11
2019-01-04T12:30:51.171Z,60.70
2019-01-04T12:45:51.613Z,61.88
2019-01-04T13:00:52.025Z,62.44
2019-01-04T13:15:51.317Z,63.64
2019-01-04T13:30:51.358Z,63.89
2019-01-04T13:45:51.755Z,63.93
2019-01-04T14:00:53.404Z,65.02
2019-01-04T14:15:52.114Z,65.49
2019-01-04T14:30:53.487Z,66.61
2019-01-04T14:45:51.390Z,66.97
2019-01-04T15:00:50.793Z,66.65
2019-01-04T15:15:52.224Z,66.41
2019-01-04T15:30:53.621Z,66.60
2019-01-04T15:45:51.533Z,66.73
2019-01-04T16:00:51.001Z,67.22
2019-01-04T16:15:51.115Z,68.48
2019-01-04T16:30:51.545Z,69.36
2019-01-04T16:45:52.253Z,71.09
2019-01-04T17:00:51.138Z,70.28
2019-01-04T17:15:51.242Z,70.31
2019-01-04T17:30:52.569Z,70.83
2019-01-04T17:45:53.018Z,71.96
2019-01-04T18:00:54.414Z,72.95
2019-01-04T18:15:54.297Z,70.77
2019-01-04T18:30:51.243Z,71.76
2019-01-04T18:45:51.344Z,68.09
2019-01-04T19:00:51.559Z,65.54
2019-01-04T19:15:53.561Z,67.36
2019-01-04T19:30:54.139Z,66.86
2019-01-04T19:45:52.024Z,67.19
2019-01-04T20:00:50.711Z,67.58
2019-01-04T21:30:56.452Z,65.83
2019-01-04T22:15:55.538Z,65.38
2019-01-04T22:30:59.971Z,65.21
2019-01-04T23:15:58.204Z,65.41
